createdAt,value
2023-01-28T00:01:05.472Z,100.00
2023-01-28T00:03:32.493Z,100.00
2023-01-28T00:06:13.836Z,100.00
2023-01-28T00:08:42.031Z,100.00
2023-01-28T00:11:12.654Z,100.00
2023-01-28T00:13:40.667Z,100.00
2023-01-28T00:16:09.927Z,100.00
2023-01-28T00:18:37.692Z,100.00
2023-01-28T00:21:13.656Z,100.00
2023-01-28T00:23:43.369Z,100.00
2023-01-28T00:26:15.370Z,100.00
2023-01-28T00:28:43.319Z,100.00
2023-01-28T00:31:22.833Z,100.00
2023-01-28T00:33:51.844Z,100.00
2023-01-28T00:36:21.132Z,100.00
2023-01-28T00:38:59.575Z,100.00
2023-01-28T00:41:29.633Z,100.00
2023-01-28T00:43:56.979Z,100.00
2023-01-28T00:46:26.625Z,100.00
2023-01-28T00:48:53.818Z,100.00
2023-01-28T00:51:21.715Z,100.00
2023-01-28T00:53:48.900Z,100.00
2023-01-28T00:56:17.993Z,100.00
2023-01-28T00:58:45.538Z,100.00
2023-01-28T01:01:17.057Z,100.00
2023-01-28T01:03:44.770Z,100.00
2023-01-28T01:06:14.248Z,100.00
2023-01-28T01:08:42.911Z,100.00
2023-01-28T01:11:12.107Z,100.00
2023-01-28T01:13:39.251Z,100.00
2023-01-28T01:16:16.704Z,100.00
2023-01-28T01:18:44.105Z,100.00
2023-01-28T01:21:18.742Z,100.00
2023-01-28T01:23:47.201Z,100.00
2023-01-28T01:26:14.975Z,100.00
2023-01-28T01:28:42.568Z,100.00
2023-01-28T01:31:17.713Z,100.00
2023-01-28T01:33:47.534Z,100.00
2023-01-28T01:36:17.315Z,100.00
2023-01-28T01:38:44.360Z,100.00
2023-01-28T01:41:30.074Z,100.00
2023-01-28T01:44:02.530Z,100.00
2023-01-28T01:46:43.689Z,100.00
2023-01-28T01:49:27.671Z,100.00
2023-01-28T01:52:02.652Z,100.00
2023-01-28T01:54:32.664Z,100.00
2023-01-28T01:57:01.561Z,100.00
2023-01-28T01:59:33.096Z,100.00
2023-01-28T02:02:08.202Z,100.00
2023-01-28T02:04:44.786Z,100.00
2023-01-28T02:07:16.235Z,100.00
2023-01-28T02:09:43.355Z,100.00
2023-01-28T02:12:18.776Z,100.00
2023-01-28T02:15:15.181Z,100.00
2023-01-28T02:17:42.812Z,100.00
2023-01-28T02:20:13.283Z,100.00
2023-01-28T02:22:55.458Z,100.00
2023-01-28T02:25:41.516Z,100.00
2023-01-28T02:28:36.039Z,100.00
2023-01-28T02:31:25.402Z,100.00
2023-01-28T02:34:25.870Z,100.00
2023-01-28T02:37:10.039Z,100.00
2023-01-28T02:39:46.089Z,100.00
2023-01-28T02:42:20.229Z,100.00
2023-01-28T02:44:47.199Z,100.00
2023-01-28T02:47:34.620Z,100.00
2023-01-28T02:50:06.016Z,100.00
2023-01-28T02:53:23.426Z,100.00
2023-01-28T02:56:21.239Z,100.00
2023-01-28T02:59:01.404Z,100.00
2023-01-28T03:01:44.836Z,100.00
2023-01-28T03:04:27.247Z,100.00
2023-01-28T03:07:04.227Z,100.00
2023-01-28T03:09:32.434Z,100.00
2023-01-28T03:12:30.008Z,100.00
2023-01-28T03:15:39.893Z,100.00
2023-01-28T03:19:06.723Z,100.00
2023-01-28T03:21:59.934Z,100.00
2023-01-28T03:24:52.204Z,100.00
2023-01-28T03:27:54.821Z,100.00
2023-01-28T03:30:51.673Z,100.00
2023-01-28T03:33:37.660Z,100.00
2023-01-28T03:36:25.534Z,100.00
2023-01-28T03:38:52.915Z,100.00
2023-01-28T03:41:26.538Z,100.00
2023-01-28T03:43:53.734Z,100.00
2023-01-28T03:46:20.947Z,100.00
2023-01-28T03:48:47.976Z,100.00
2023-01-28T03:51:15.856Z,100.00
2023-01-28T03:53:42.856Z,100.00
2023-01-28T03:56:09.870Z,100.00
2023-01-28T03:58:57.055Z,100.00
2023-01-28T04:01:24.426Z,100.00
2023-01-28T04:03:51.849Z,100.00
2023-01-28T04:06:18.923Z,100.00
2023-01-28T04:08:49.086Z,100.00
2023-01-28T04:11:16.071Z,100.00
2023-01-28T04:13:43.965Z,100.00
2023-01-28T04:16:12.599Z,100.00
2023-01-28T04:18:39.702Z,100.00
2023-01-28T04:21:06.823Z,100.00
2023-01-28T04:23:33.783Z,100.00
2023-01-28T04:26:00.761Z,100.00
2023-01-28T04:28:27.995Z,100.00
2023-01-28T04:30:54.964Z,100.00
2023-01-28T04:33:22.546Z,100.00
2023-01-28T04:35:49.572Z,100.00
2023-01-28T04:38:16.607Z,100.00
2023-01-28T04:40:43.555Z,100.00
2023-01-28T04:43:10.568Z,100.00
2023-01-28T04:45:37.535Z,100.00
2023-01-28T04:48:04.550Z,100.00
2023-01-28T04:50:31.547Z,100.00
2023-01-28T04:52:58.509Z,100.00
2023-01-28T04:55:25.546Z,100.00
2023-01-28T04:57:52.553Z,100.00
2023-01-28T05:00:19.986Z,100.00
2023-01-28T05:02:46.992Z,100.00
2023-01-28T05:05:14.383Z,100.00
2023-01-28T05:07:41.489Z,100.00
2023-01-28T05:10:09.591Z,100.00
2023-01-28T05:12:36.668Z,100.00
2023-01-28T05:15:04.405Z,100.00
2023-01-28T05:17:31.442Z,100.00
2023-01-28T05:19:58.414Z,100.00
2023-01-28T05:22:25.420Z,100.00
2023-01-28T05:24:52.402Z,100.00
2023-01-28T05:27:19.448Z,100.00
2023-01-28T05:29:46.592Z,100.00
2023-01-28T05:32:13.611Z,100.00
2023-01-28T05:34:40.639Z,100.00
2023-01-28T05:37:07.583Z,100.00
2023-01-28T05:39:34.670Z,100.00
2023-01-28T05:42:01.700Z,100.00
2023-01-28T05:44:28.764Z,100.00
2023-01-28T05:46:55.713Z,100.00
2023-01-28T05:49:22.899Z,100.00
2023-01-28T05:51:49.927Z,100.00
2023-01-28T05:54:16.919Z,100.00
2023-01-28T05:56:44.163Z,100.00
2023-01-28T05:59:12.186Z,100.00
2023-01-28T06:01:39.721Z,100.00
2023-01-28T06:04:06.781Z,100.00
2023-01-28T06:06:33.818Z,100.00
2023-01-28T06:09:00.803Z,100.00
2023-01-28T06:11:27.779Z,100.00
2023-01-28T06:13:54.768Z,100.00
2023-01-28T06:16:21.750Z,100.00
2023-01-28T06:18:48.701Z,100.00
2023-01-28T06:21:15.650Z,100.00
2023-01-28T06:23:42.605Z,100.00
2023-01-28T06:26:09.618Z,100.00
2023-01-28T06:28:36.688Z,100.00
2023-01-28T06:31:03.865Z,100.00
2023-01-28T06:33:31.090Z,100.00
2023-01-28T06:35:58.162Z,100.00
2023-01-28T06:38:25.228Z,100.00
2023-01-28T06:40:55.962Z,100.00
2023-01-28T06:43:28.177Z,100.00
2023-01-28T06:45:55.626Z,100.00
2023-01-28T06:48:23.156Z,100.00
2023-01-28T06:50:50.353Z,100.00
2023-01-28T06:53:18.679Z,100.00
2023-01-28T06:55:46.169Z,100.00
2023-01-28T06:58:14.380Z,100.00
2023-01-28T07:00:41.916Z,100.00
2023-01-28T07:03:09.019Z,100.00
2023-01-28T07:05:36.229Z,100.00
2023-01-28T07:08:03.465Z,100.00
2023-01-28T07:10:30.956Z,100.00
2023-01-28T07:12:58.025Z,100.00
2023-01-28T07:15:25.065Z,100.00
2023-01-28T07:17:52.208Z,100.00
2023-01-28T07:20:19.397Z,100.00
2023-01-28T07:22:46.929Z,100.00
2023-01-28T07:25:15.394Z,100.00
2023-01-28T07:27:53.857Z,100.00
2023-01-28T07:30:22.234Z,100.00
2023-01-28T07:32:54.703Z,100.00
2023-01-28T07:35:22.435Z,100.00
2023-01-28T07:37:59.022Z,100.00
2023-01-28T07:40:27.856Z,100.00
2023-01-28T07:42:56.419Z,100.00
2023-01-28T07:45:25.366Z,100.00
2023-01-28T07:48:02.441Z,100.00
2023-01-28T07:50:31.265Z,100.00
2023-01-28T07:52:58.641Z,100.00
2023-01-28T07:55:26.193Z,100.00
2023-01-28T07:57:56.226Z,100.00
2023-01-28T08:00:25.099Z,100.00
2023-01-28T08:03:04.410Z,100.00
2023-01-28T08:05:45.069Z,100.00
2023-01-28T08:08:12.561Z,100.00
2023-01-28T08:10:40.063Z,100.00
2023-01-28T08:13:08.061Z,100.00
2023-01-28T08:15:35.648Z,100.00
2023-01-28T08:18:04.539Z,100.00
2023-01-28T08:20:31.736Z,100.00
2023-01-28T08:23:17.936Z,100.00
2023-01-28T08:25:46.665Z,100.00
2023-01-28T08:28:16.372Z,100.00
2023-01-28T08:30:44.580Z,100.00
2023-01-28T08:33:15.338Z,100.00
2023-01-28T08:35:42.412Z,100.00
2023-01-28T08:38:11.974Z,100.00
2023-01-28T08:40:39.133Z,100.00
2023-01-28T08:43:06.207Z,100.00
2023-01-28T08:45:33.370Z,100.00
2023-01-28T08:48:04.532Z,100.00
2023-01-28T08:50:38.093Z,100.00
2023-01-28T08:53:12.968Z,100.00
2023-01-28T08:55:40.003Z,100.00
2023-01-28T08:58:12.245Z,100.00
2023-01-28T09:00:40.046Z,100.00
2023-01-28T09:03:08.005Z,100.00
2023-01-28T09:05:37.416Z,100.00
2023-01-28T09:08:08.006Z,100.00
2023-01-28T09:10:37.568Z,100.00
2023-01-28T09:13:14.314Z,100.00
2023-01-28T09:15:42.159Z,100.00
2023-01-28T09:18:09.261Z,100.00
2023-01-28T09:20:38.025Z,100.00
2023-01-28T09:23:05.596Z,100.00
2023-01-28T09:25:32.769Z,100.00
2023-01-28T09:27:59.719Z,100.00
2023-01-28T09:30:27.585Z,100.00
2023-01-28T09:32:56.611Z,100.00
2023-01-28T09:35:24.542Z,100.00
2023-01-28T09:37:52.159Z,100.00
2023-01-28T09:40:24.561Z,100.00
2023-01-28T09:43:07.354Z,100.00
2023-01-28T09:45:42.749Z,100.00
2023-01-28T09:48:19.789Z,100.00
2023-01-28T09:50:51.630Z,100.00
2023-01-28T09:53:37.412Z,100.00
2023-01-28T09:56:11.485Z,100.00
2023-01-28T09:58:38.686Z,100.00
2023-01-28T10:01:36.405Z,100.00
2023-01-28T10:04:55.164Z,100.00
2023-01-28T10:07:57.705Z,100.00
2023-01-28T10:10:34.653Z,100.00
2023-01-28T10:14:01.609Z,100.00
2023-01-28T10:16:51.885Z,100.00
2023-01-28T10:19:30.955Z,100.00
2023-01-28T10:22:11.999Z,100.00
2023-01-28T10:24:46.332Z,100.00
2023-01-28T10:27:24.689Z,100.00
2023-01-28T10:29:53.242Z,100.00
2023-01-28T10:32:36.858Z,100.00
2023-01-28T10:35:06.816Z,100.00
2023-01-28T10:37:38.100Z,100.00
2023-01-28T10:40:06.248Z,99.68
2023-01-28T10:42:38.593Z,99.92
2023-01-28T10:45:30.046Z,99.28
2023-01-28T10:48:15.063Z,99.25
2023-01-28T10:50:57.159Z,98.70
2023-01-28T10:53:46.355Z,99.04
2023-01-28T10:56:24.951Z,98.81
2023-01-28T10:59:05.389Z,98.84
2023-01-28T11:01:49.263Z,97.74
2023-01-28T11:04:23.260Z,97.53
2023-01-28T11:07:21.452Z,97.06
2023-01-28T11:09:51.790Z,96.77
2023-01-28T11:12:26.595Z,96.75
2023-01-28T11:14:55.878Z,96.22
2023-01-28T11:17:26.582Z,96.84
2023-01-28T11:19:55.598Z,97.08
2023-01-28T11:22:36.124Z,96.58
2023-01-28T11:25:28.700Z,96.36
2023-01-28T11:27:56.379Z,95.78
2023-01-28T11:30:36.613Z,95.08
2023-01-28T11:33:13.039Z,94.79
2023-01-28T11:35:40.084Z,95.12
2023-01-28T11:38:24.265Z,95.02
2023-01-28T11:40:53.346Z,95.36
2023-01-28T11:43:26.836Z,94.30
2023-01-28T11:46:05.325Z,94.44
2023-01-28T11:48:56.260Z,93.93
2023-01-28T11:51:43.208Z,94.57
2023-01-28T11:55:20.879Z,94.55
2023-01-28T11:58:37.121Z,94.25
2023-01-28T12:01:25.111Z,94.06
2023-01-28T12:04:42.526Z,94.11
2023-01-28T12:07:33.754Z,93.88
2023-01-28T12:10:12.771Z,93.87
2023-01-28T12:13:17.729Z,93.94
2023-01-28T12:16:34.885Z,93.46
2023-01-28T12:19:46.465Z,93.48
2023-01-28T12:23:00.261Z,92.92
2023-01-28T12:25:50.790Z,92.65
2023-01-28T12:28:30.877Z,92.89
2023-01-28T12:31:25.480Z,92.92
2023-01-28T12:34:36.187Z,92.40
2023-01-28T12:37:40.403Z,92.22
2023-01-28T12:40:26.685Z,92.03
2023-01-28T12:43:10.617Z,91.97
2023-01-28T12:45:55.779Z,92.04
2023-01-28T12:48:40.254Z,92.14
2023-01-28T12:54:12.483Z,91.46
2023-01-28T12:56:51.355Z,91.01
2023-01-28T12:59:40.022Z,91.22
2023-01-28T13:02:13.373Z,90.95
2023-01-28T13:04:54.843Z,90.70
2023-01-28T13:07:34.997Z,90.74
2023-01-28T13:10:25.741Z,90.64
2023-01-28T13:12:54.039Z,90.90
2023-01-28T13:15:22.317Z,91.20
2023-01-28T13:18:05.370Z,90.61
2023-01-28T13:20:53.500Z,90.57
2023-01-28T13:23:45.300Z,90.50
2023-01-28T13:26:24.762Z,90.56
2023-01-28T13:28:57.718Z,90.37
2023-01-28T13:31:25.060Z,90.22
2023-01-28T13:33:54.766Z,90.31
2023-01-28T13:36:30.524Z,90.39
2023-01-28T13:39:21.294Z,90.14
2023-01-28T13:41:55.477Z,89.81
2023-01-28T13:44:29.761Z,90.39
2023-01-28T13:47:27.852Z,90.56
2023-01-28T13:49:59.359Z,90.68
2023-01-28T13:52:45.935Z,91.60
2023-01-28T13:55:13.088Z,91.45
2023-01-28T13:58:23.174Z,91.21
2023-01-28T14:01:20.535Z,91.65
2023-01-28T14:04:27.221Z,91.93
2023-01-28T14:07:10.954Z,92.22
2023-01-28T14:10:15.668Z,92.36
2023-01-28T14:13:13.046Z,92.23
2023-01-28T14:16:43.390Z,92.12
2023-01-28T14:19:14.533Z,91.81
2023-01-28T14:21:41.802Z,92.40
2023-01-28T14:24:18.003Z,92.14
2023-01-28T14:27:14.069Z,92.02
2023-01-28T14:30:24.289Z,91.74
2023-01-28T14:32:53.888Z,91.70
2023-01-28T14:35:34.478Z,92.30
2023-01-28T14:38:09.648Z,92.52
2023-01-28T14:40:40.986Z,92.60
2023-01-28T14:43:16.243Z,92.46
2023-01-28T14:45:49.330Z,92.01
2023-01-28T14:48:44.159Z,91.16
2023-01-28T14:52:11.964Z,91.61
2023-01-28T14:55:01.162Z,91.04
2023-01-28T14:57:52.835Z,91.20
2023-01-28T15:00:26.452Z,91.09
2023-01-28T15:02:53.548Z,91.63
2023-01-28T15:05:27.793Z,91.59
2023-01-28T15:07:56.107Z,91.34
2023-01-28T15:10:31.776Z,91.38
2023-01-28T15:13:05.174Z,91.69
2023-01-28T15:15:39.598Z,91.42
2023-01-28T15:18:22.647Z,91.77
2023-01-28T15:20:53.768Z,91.78
2023-01-28T15:23:36.010Z,92.13
2023-01-28T15:26:20.614Z,91.53
2023-01-28T15:28:49.691Z,91.18
2023-01-28T15:31:32.909Z,90.55
2023-01-28T15:34:15.488Z,91.10
2023-01-28T15:36:42.730Z,91.09
2023-01-28T15:39:23.625Z,90.60
2023-01-28T15:41:54.750Z,90.78
2023-01-28T15:44:31.133Z,91.13
2023-01-28T15:47:01.289Z,91.09
2023-01-28T15:49:34.522Z,91.77
2023-01-28T15:52:01.966Z,92.15
2023-01-28T15:54:30.620Z,92.00
2023-01-28T15:57:09.368Z,92.25
2023-01-28T15:59:36.399Z,92.76
2023-01-28T16:02:22.006Z,92.51
2023-01-28T16:05:10.664Z,92.68
2023-01-28T16:07:46.404Z,92.93
2023-01-28T16:10:28.975Z,93.06
2023-01-28T16:13:16.839Z,92.21
2023-01-28T16:15:48.891Z,91.61
2023-01-28T16:18:55.800Z,92.18
2023-01-28T16:21:32.145Z,92.46
2023-01-28T16:24:02.912Z,92.82
2023-01-28T16:26:33.511Z,92.88
2023-01-28T16:29:15.585Z,92.63
2023-01-28T16:31:42.716Z,91.03
2023-01-28T16:34:11.772Z,90.06
2023-01-28T16:36:39.587Z,89.79
2023-01-28T16:39:06.637Z,88.24
2023-01-28T16:41:41.412Z,88.05
2023-01-28T16:44:24.549Z,87.33
2023-01-28T16:46:51.523Z,87.52
2023-01-28T16:49:18.572Z,87.84
2023-01-28T16:51:45.605Z,88.21
2023-01-28T16:54:26.028Z,87.98
2023-01-28T16:57:04.213Z,88.86
2023-01-28T16:59:40.959Z,88.76
2023-01-28T17:02:12.409Z,88.68
2023-01-28T17:04:39.491Z,87.99
2023-01-28T17:07:07.224Z,87.89
2023-01-28T17:09:34.744Z,87.17
2023-01-28T17:12:05.008Z,87.00
2023-01-28T17:14:32.433Z,86.89
2023-01-28T17:16:59.371Z,86.45
2023-01-28T17:19:26.405Z,86.29
2023-01-28T17:21:53.461Z,85.14
2023-01-28T17:24:20.506Z,84.39
2023-01-28T17:26:47.626Z,84.27
2023-01-28T17:29:14.649Z,84.27
2023-01-28T17:31:44.877Z,83.89
2023-01-28T17:34:12.588Z,83.58
2023-01-28T17:36:39.675Z,83.51
2023-01-28T17:39:07.580Z,83.80
2023-01-28T17:41:34.753Z,83.16
2023-01-28T17:44:01.907Z,83.15
2023-01-28T17:46:28.979Z,83.00
2023-01-28T17:48:55.933Z,82.57
2023-01-28T17:51:23.587Z,81.69
2023-01-28T17:53:53.026Z,81.90
2023-01-28T17:56:26.808Z,82.08
2023-01-28T17:58:57.317Z,81.78
2023-01-28T18:01:26.709Z,81.38
2023-01-28T18:03:55.199Z,81.41
2023-01-28T18:06:22.569Z,81.32
2023-01-28T18:08:49.819Z,81.58
2023-01-28T18:11:22.450Z,81.72
2023-01-28T18:13:49.694Z,81.51
2023-01-28T18:16:19.499Z,81.60
2023-01-28T18:18:48.284Z,81.58
2023-01-28T18:21:51.793Z,81.74
2023-01-28T18:24:21.063Z,82.01
2023-01-28T18:26:48.151Z,82.25
2023-01-28T18:29:20.383Z,82.49
2023-01-28T18:31:52.002Z,82.18
2023-01-28T18:34:19.061Z,82.27
2023-01-28T18:36:47.015Z,82.33
2023-01-28T18:39:18.888Z,82.19
2023-01-28T18:41:46.454Z,81.37
2023-01-28T18:44:16.685Z,81.65
2023-01-28T18:46:45.178Z,81.65
2023-01-28T18:49:12.380Z,81.69
2023-01-28T18:51:39.582Z,81.81
2023-01-28T18:54:11.535Z,81.22
2023-01-28T18:56:40.696Z,81.15
2023-01-28T18:59:12.086Z,80.99
2023-01-28T19:01:40.750Z,81.05
2023-01-28T19:04:07.930Z,80.71
2023-01-28T19:06:35.623Z,80.89
2023-01-28T19:09:09.006Z,80.38
2023-01-28T19:11:38.599Z,79.99
2023-01-28T19:14:13.073Z,79.74
2023-01-28T19:16:40.373Z,79.58
2023-01-28T19:19:08.384Z,79.74
2023-01-28T19:21:35.815Z,80.23
2023-01-28T19:24:09.269Z,80.21
2023-01-28T19:26:38.265Z,80.50
2023-01-28T19:29:10.408Z,80.87
2023-01-28T19:31:39.321Z,80.54
2023-01-28T19:34:07.007Z,79.79
2023-01-28T19:36:35.635Z,79.54
2023-01-28T19:39:08.502Z,79.21
2023-01-28T19:41:36.559Z,79.85
2023-01-28T19:44:05.026Z,79.47
2023-01-28T19:46:32.705Z,79.25
2023-01-28T19:49:00.026Z,79.73
2023-01-28T19:51:26.946Z,80.32
2023-01-28T19:53:55.577Z,80.08
2023-01-28T19:56:25.630Z,80.09
2023-01-28T19:58:54.570Z,79.66
2023-01-28T20:01:27.922Z,79.88
2023-01-28T20:03:59.381Z,80.49
2023-01-28T20:06:29.632Z,80.85
2023-01-28T20:09:10.727Z,81.54
2023-01-28T20:11:37.740Z,82.23
2023-01-28T20:14:04.795Z,82.35
2023-01-28T20:16:34.581Z,82.71
2023-01-28T20:19:04.895Z,82.51
2023-01-28T20:21:33.720Z,82.43
2023-01-28T20:24:02.998Z,81.95
2023-01-28T20:26:36.308Z,81.73
2023-01-28T20:29:15.173Z,81.98
2023-01-28T20:31:42.711Z,81.60
2023-01-28T20:34:19.266Z,81.00
2023-01-28T20:36:46.471Z,81.04
2023-01-28T20:39:14.432Z,81.21
2023-01-28T20:41:41.427Z,81.32
2023-01-28T20:44:08.417Z,81.37
2023-01-28T20:46:36.798Z,81.68
2023-01-28T20:49:06.703Z,81.71
2023-01-28T20:51:38.331Z,82.37
2023-01-28T20:54:05.770Z,82.68
2023-01-28T20:56:33.079Z,83.02
2023-01-28T20:59:05.725Z,82.45
2023-01-28T21:01:35.490Z,81.99
2023-01-28T21:04:06.714Z,81.84
2023-01-28T21:06:36.507Z,81.92
2023-01-28T21:09:04.876Z,82.47
2023-01-28T21:14:02.465Z,81.09
2023-01-28T21:16:29.847Z,81.06
2023-01-28T21:18:56.888Z,81.30
2023-01-28T21:21:28.046Z,81.42
2023-01-28T21:23:57.933Z,81.89
2023-01-28T21:26:25.139Z,82.27
2023-01-28T21:28:52.189Z,82.77
2023-01-28T21:31:25.678Z,83.15
2023-01-28T21:33:56.435Z,82.57
2023-01-28T21:36:24.935Z,82.60
2023-01-28T21:38:54.117Z,82.85
2023-01-28T21:41:21.213Z,83.03
2023-01-28T21:43:53.674Z,82.90
2023-01-28T21:46:22.411Z,82.65
2023-01-28T21:48:49.632Z,82.61
2023-01-28T21:51:39.302Z,82.78
2023-01-28T21:54:12.315Z,83.28
2023-01-28T21:56:39.800Z,83.46
2023-01-28T21:59:25.181Z,83.29
2023-01-28T22:01:52.383Z,83.84
2023-01-28T22:04:19.522Z,83.57
2023-01-28T22:06:46.908Z,83.12
2023-01-28T22:09:14.404Z,83.25
2023-01-28T22:11:43.579Z,83.52
2023-01-28T22:14:11.374Z,83.66
2023-01-28T22:16:38.898Z,84.16
2023-01-28T22:19:06.021Z,84.87
2023-01-28T22:21:33.476Z,85.16
2023-01-28T22:24:00.451Z,85.37
2023-01-28T22:26:27.423Z,84.42
2023-01-28T22:28:54.402Z,84.14
2023-01-28T22:31:21.439Z,84.38
2023-01-28T22:33:48.431Z,84.83
2023-01-28T22:36:16.494Z,83.36
2023-01-28T22:38:45.398Z,82.49
2023-01-28T22:41:22.693Z,82.26
2023-01-28T22:43:51.659Z,81.71
2023-01-28T22:46:21.875Z,81.47
2023-01-28T22:48:50.181Z,81.23
2023-01-28T22:51:20.770Z,82.30
2023-01-28T22:53:49.280Z,81.86
2023-01-28T22:56:19.431Z,81.96
2023-01-28T22:58:46.992Z,82.19
2023-01-28T23:01:15.616Z,82.79
2023-01-28T23:03:47.748Z,82.38
2023-01-28T23:06:18.201Z,82.38
2023-01-28T23:08:45.225Z,82.77
2023-01-28T23:11:22.961Z,83.21
2023-01-28T23:14:08.439Z,83.79
2023-01-28T23:16:54.014Z,83.66
2023-01-28T23:19:39.947Z,83.87
2023-01-28T23:22:34.976Z,84.58
2023-01-28T23:25:01.905Z,85.21
2023-01-28T23:27:28.823Z,85.54
2023-01-28T23:29:55.746Z,85.47
2023-01-28T23:32:23.072Z,84.43
2023-01-28T23:34:50.310Z,82.98
2023-01-28T23:37:17.704Z,81.78
2023-01-28T23:39:44.743Z,81.51
2023-01-28T23:42:21.139Z,81.21
2023-01-28T23:44:48.605Z,81.29
2023-01-28T23:47:15.859Z,81.50
2023-01-28T23:49:42.866Z,81.52
2023-01-28T23:52:09.913Z,80.47
2023-01-28T23:54:36.944Z,79.94
2023-01-28T23:57:05.037Z,79.57
2023-01-28T23:59:32.243Z,79.40
